Cengizhan-1 — TC6133 — position and weather

sailwx.info

Track history (hours):
 
Tides and Currents Weather Stations Pressure Air Temp Water Temp Dewpoint Dewpoint Depression Visibility Wind Speed Wind Dir Waves Ship Positions

Cengizhan-1

Last reported at 2018-May-15 14:20 UTC. Time now 2018-Jun-18 03:46 UTC.
Position N 36°53' E 030°42'.
Warning: this ship's position is 33 days out of date.

Length 18 m.

Type: Passenger vessel. MMSI: 271040506.

Date/timePositionNaut miles runAvg speedWind from/ knotsBaromVisibWave heightAir tempDewpointWater temp
2018-May-15 14:20N 36°53' E 030°42'0 0.0
2018-May-15 13:56N 36°53' E 030°42'0 0.2
2018-May-15 13:16N 36°53' E 030°42'2 6.4
2018-May-15 13:01N 36°52' E 030°41'3 6.6
2018-May-15 12:30N 36°50' E 030°37'1 1.8
2018-May-15 12:00N 36°49' E 030°36'2 3.2
2018-May-15 11:30N 36°48' E 030°35'0 0.0
2018-May-15 11:00N 36°48' E 030°35'3 6.0
2018-May-15 10:30N 36°49' E 030°39'3 6.8
2018-May-15 10:00N 36°50' E 030°43'2 4.6
2018-May-15 09:30N 36°50' E 030°46'0 0.3
2018-May-15 08:08N 36°51' E 030°45'1 6.4
2018-May-15 08:00N 36°51' E 030°44'3 4.5
2018-May-15 07:25N 36°53' E 030°42'0 0.0
2018-May-15 06:49N 36°53' E 030°42'0 0.0
2018-May-15 06:25N 36°53' E 030°42'0 0.0
2018-May-15 05:55N 36°53' E 030°42'0 0.0
2018-May-15 05:13N 36°53' E 030°42'0 0.0
2018-May-15 04:55N 36°53' E 030°42'0 0.0
2018-May-15 04:25N 36°53' E 030°42'0 0.0
2018-May-15 03:55N 36°53' E 030°42'0 0.0
2018-May-15 03:25N 36°53' E 030°42'0 0.0
2018-May-15 02:55N 36°53' E 030°42'0 0.0
2018-May-15 02:25N 36°53' E 030°42'0 0.0
2018-May-15 01:55N 36°53' E 030°42'0 0.0
2018-May-15 01:19N 36°53' E 030°42'0 0.0
2018-May-15 00:43N 36°53' E 030°42'0 0.0
2018-May-14 15:07N 36°53' E 030°42'0 0.0
2018-May-14 14:01N 36°53' E 030°42'0 0.0
2018-May-14 13:01N 36°53' E 030°42'0 0.0
2018-May-14 12:55N 36°53' E 030°42'1 3.3
2018-May-14 12:28N 36°52' E 030°43'3 6.1
2018-May-14 12:00N 36°51' E 030°46'1 1.0
2018-May-14 10:48N 36°51' E 030°45'2 5.9
2018-May-14 10:30N 36°52' E 030°43'1 2.7
2018-May-14 10:00N 36°53' E 030°42'1 1.1
2018-May-14 09:11N 36°52' E 030°43'1 6.9
2018-May-14 09:00N 36°51' E 030°44'1 1.1
2018-May-14 07:45N 36°51' E 030°45'2 6.1
2018-May-14 07:30N 36°52' E 030°44'2 1.5
2018-May-14 06:10N 36°53' E 030°42'0 0.0
2018-May-14 05:58N 36°53' E 030°42'0 0.0
2018-May-14 04:58N 36°53' E 030°42'0 0.0
2018-May-14 04:04N 36°53' E 030°42'0 0.1
2018-May-14 03:58N 36°53' E 030°42'0 0.0
2018-May-14 03:28N 36°53' E 030°42'0 0.0
2018-May-14 02:22N 36°53' E 030°42'0 0.0
2018-May-14 01:58N 36°53' E 030°42'0 0.0
2018-May-14 01:16N 36°53' E 030°42'0 0.0
2018-May-14 00:58N 36°53' E 030°42'0 0.0
2018-May-14 00:22N 36°53' E 030°42'0 0.0
2018-May-13 23:58N 36°53' E 030°42'0 0.0
2018-May-13 23:22N 36°53' E 030°42'0 0.0
2018-May-13 22:58N 36°53' E 030°42'0 0.0
2018-May-13 22:28N 36°53' E 030°42'0 0.0
2018-May-13 21:35N 36°53' E 030°42'0 0.0
2018-May-13 21:29N 36°53' E 030°42'0 0.0
2018-May-13 20:52N 36°53' E 030°42'0 0.0
2018-May-13 20:23N 36°53' E 030°42'0 0.0
2018-May-13 19:58N 36°53' E 030°42'0 0.0
2018-May-13 19:28N 36°53' E 030°42'0 0.0
2018-May-13 18:59N 36°53' E 030°42'0 0.0
2018-May-13 18:17N 36°53' E 030°42'0 0.0
2018-May-13 17:53N 36°53' E 030°42'0 0.0
2018-May-13 17:29N 36°53' E 030°42'0 0.0
2018-May-13 16:59N 36°53' E 030°42'0 0.0
2018-May-13 16:29N 36°53' E 030°42'0 0.0
2018-May-13 15:59N 36°53' E 030°42'0 0.0
2018-May-13 15:26N 36°53' E 030°42'0 0.0
2018-May-13 14:59N 36°53' E 030°42'0 0.0
2018-May-13 14:29N 36°53' E 030°42'0 0.0
2018-May-13 13:59N 36°53' E 030°42'1 2.0
2018-May-13 13:28N 36°52' E 030°42'1 2.2
2018-May-13 13:00N 36°53' E 030°42'0 0.3
2018-May-13 12:28N 36°53' E 030°42'0 0.0
2018-May-13 11:52N 36°53' E 030°42'0 0.0
2018-May-13 11:28N 36°53' E 030°42'0 0.0
2018-May-13 10:58N 36°53' E 030°42'0 0.0
2018-May-13 10:28N 36°53' E 030°42'0 0.0
2018-May-13 09:58N 36°53' E 030°42'0 0.0
2018-May-13 09:28N 36°53' E 030°42'1 1.2
2018-May-13 09:00N 36°53' E 030°42'0 0.4
2018-May-13 08:30N 36°53' E 030°42'0 0.6
2018-May-13 07:56N 36°53' E 030°42'0 0.0
2018-May-13 07:29N 36°53' E 030°42'0 0.0
2018-May-13 06:56N 36°53' E 030°42'0 0.0
2018-May-13 06:26N 36°53' E 030°42'0 0.0
2018-May-13 05:56N 36°53' E 030°42'0 0.0
2018-May-13 05:20N 36°53' E 030°42'0 0.0
2018-May-13 04:56N 36°53' E 030°42'0 0.0
2018-May-13 04:20N 36°53' E 030°42'0 0.0
2018-May-13 03:56N 36°53' E 030°42'0 0.0
2018-May-13 03:26N 36°53' E 030°42'0 0.0
2018-May-13 02:56N 36°53' E 030°42'0 0.0
2018-May-13 02:26N 36°53' E 030°42'0 0.0
2018-May-13 01:56N 36°53' E 030°42'0 0.0
2018-May-13 01:26N 36°53' E 030°42'0 0.0
2018-May-13 00:56N 36°53' E 030°42'0 0.0
2018-May-13 00:26N 36°53' E 030°42'0 0.0
2018-May-12 23:56N 36°53' E 030°42'0 0.0
2018-May-12 23:26N 36°53' E 030°42'0 0.0
2018-May-12 22:56N 36°53' E 030°42'0 0.0
2018-May-12 22:26N 36°53' E 030°42'0 0.0
2018-May-12 21:59N 36°53' E 030°42'0 0.0
2018-May-12 21:26N 36°53' E 030°42'0 0.0
2018-May-12 20:44N 36°53' E 030°42'0 0.0
2018-May-12 20:26N 36°53' E 030°42'0 0.0
2018-May-12 19:56N 36°53' E 030°42'0 0.0
2018-May-12 06:20N 36°53' E 030°42'0 0.0
2018-May-12 05:50N 36°53' E 030°42'0 0.0
2018-May-12 05:26N 36°53' E 030°42'0 0.0
2018-May-12 04:56N 36°53' E 030°42'0 0.0
2018-May-12 04:26N 36°53' E 030°42'0 0.0
2018-May-12 03:56N 36°53' E 030°42'0 0.0
2018-May-12 03:26N 36°53' E 030°42'0 0.0
2018-May-12 02:56N 36°53' E 030°42'0 0.0
2018-May-12 02:26N 36°53' E 030°42'0 0.0
2018-May-12 01:56N 36°53' E 030°42'0 0.0
2018-May-12 01:26N 36°53' E 030°42'0 0.0
2018-May-12 00:56N 36°53' E 030°42'0 0.0
2018-May-12 00:26N 36°53' E 030°42'0 0.0
2018-May-11 23:56N 36°53' E 030°42'0 0.0
2018-May-11 23:14N 36°53' E 030°42'0 0.0
2018-May-11 22:56N 36°53' E 030°42'0 0.0
2018-May-11 22:26N 36°53' E 030°42'0 0.0
2018-May-11 21:56N 36°53' E 030°42'0 0.0
2018-May-11 21:26N 36°53' E 030°42'0 0.0
2018-May-11 20:56N 36°53' E 030°42'0 0.0
2018-May-11 20:26N 36°53' E 030°42'0 0.0
2018-May-11 19:56N 36°53' E 030°42'0 0.0
2018-May-11 19:26N 36°53' E 030°42'0 0.0
2018-May-11 18:56N 36°53' E 030°42'0 0.0
2018-May-11 18:26N 36°53' E 030°42'0 0.0
2018-May-11 17:56N 36°53' E 030°42'0 0.0
2018-May-11 17:26N 36°53' E 030°42'0 0.0
2018-May-11 16:56N 36°53' E 030°42'0 0.0
2018-May-11 16:26N 36°53' E 030°42'0 0.0
2018-May-11 15:56N 36°53' E 030°42'0 0.0
2018-May-11 15:14N 36°53' E 030°42'0 0.0
2018-May-11 14:56N 36°53' E 030°42'0 0.0
2018-May-11 14:26N 36°53' E 030°42'0 0.0
2018-May-11 13:56N 36°53' E 030°42'0 0.0
2018-May-11 13:26N 36°53' E 030°42'0 0.0
2018-May-11 12:56N 36°53' E 030°42'0 0.0
2018-May-11 12:26N 36°53' E 030°42'0 0.0
2018-May-11 11:56N 36°53' E 030°42'0 0.0
2018-May-11 11:26N 36°53' E 030°42'0 0.0
2018-May-11 10:56N 36°53' E 030°42'0 0.0
2018-May-11 10:26N 36°53' E 030°42'0 0.0
2018-May-11 09:56N 36°53' E 030°42'0 0.0
2018-May-11 09:26N 36°53' E 030°42'0 0.0
2018-May-11 08:56N 36°53' E 030°42'0 0.0
2018-May-11 08:26N 36°53' E 030°42'0 0.0
2018-May-11 07:56N 36°53' E 030°42'0 0.0
2018-May-11 07:26N 36°53' E 030°42'0 0.0
2018-May-11 06:50N 36°53' E 030°42'0 0.0
2018-May-11 06:26N 36°53' E 030°42'0 0.0
2018-May-11 05:50N 36°53' E 030°42'0 0.0
2018-May-11 05:26N 36°53' E 030°42'0 0.0
2018-May-11 04:56N 36°53' E 030°42'0 0.0
2018-May-11 04:26N 36°53' E 030°42'0 0.0
2018-May-11 03:56N 36°53' E 030°42'0 0.0
2018-May-11 03:26N 36°53' E 030°42'0 0.0
2018-May-11 02:50N 36°53' E 030°42'0 0.0
2018-May-11 02:26N 36°53' E 030°42'0 0.0
2018-May-11 01:56N 36°53' E 030°42'0 0.0
2018-May-11 01:26N 36°53' E 030°42'0 0.0
2018-May-11 00:56N 36°53' E 030°42'0 0.0
2018-May-11 00:26N 36°53' E 030°42'0 0.0
2018-May-10 23:56N 36°53' E 030°42'0 0.0
2018-May-10 23:26N 36°53' E 030°42'0 0.0
2018-May-10 22:56N 36°53' E 030°42'0 0.0
2018-May-10 22:26N 36°53' E 030°42'0 0.0
2018-May-10 21:56N 36°53' E 030°42'0 0.0
2018-May-10 21:26N 36°53' E 030°42'0 0.0
2018-May-10 20:56N 36°53' E 030°42'0 0.0
2018-May-10 20:26N 36°53' E 030°42'0 0.0
2018-May-10 19:50N 36°53' E 030°42'0 0.0
2018-May-10 19:26N 36°53' E 030°42'0 0.0
2018-May-10 18:56N 36°53' E 030°42'0 0.0
2018-May-10 18:26N 36°53' E 030°42'0 0.0
2018-May-10 17:14N 36°53' E 030°42'0 0.0
2018-May-10 16:56N 36°53' E 030°42'0 0.0
2018-May-10 16:20N 36°53' E 030°42'0 0.0
2018-May-10 15:56N 36°53' E 030°42'0 0.0
2018-May-10 15:26N 36°53' E 030°42'0 0.0
2018-May-10 14:56N 36°53' E 030°42'0 0.0
2018-May-10 14:26N 36°53' E 030°42'0 0.0
2018-May-10 13:56N 36°53' E 030°42'0 0.0
2018-May-10 13:26N 36°53' E 030°42'0 0.0
2018-May-10 12:56N 36°53' E 030°42'0 0.0
2018-May-10 12:26N 36°53' E 030°42'0 0.0
2018-May-10 11:56N 36°53' E 030°42'0 0.0
2018-May-10 11:26N 36°53' E 030°42'0 0.0
2018-May-10 10:59N 36°53' E 030°42'0 0.0
2018-May-10 10:29N 36°53' E 030°42'0 0.0
2018-May-10 09:56N 36°53' E 030°42'0 0.0
2018-May-10 09:29N 36°53' E 030°42'2 3.6
2018-May-10 09:00N 36°52' E 030°43'2 1.8
2018-May-10 07:47N 36°51' E 030°46'2 6.4
2018-May-10 07:30N 36°51' E 030°44'2 4.1
2018-May-10 06:59N 36°53' E 030°42'0 0.0
2018-May-10 06:29N 36°53' E 030°42'0 0.0
2018-May-10 05:59N 36°53' E 030°42'0 0.0
2018-May-10 05:29N 36°53' E 030°42'0 0.0
2018-May-10 04:59N 36°53' E 030°42'0 0.0
2018-May-10 04:29N 36°53' E 030°42'0 0.0
2018-May-10 03:59N 36°53' E 030°42'0 0.0
2018-May-10 03:11N 36°53' E 030°42'0 0.0
2018-May-10 02:59N 36°53' E 030°42'0 0.0
2018-May-10 02:29N 36°53' E 030°42'0 0.0
2018-May-10 01:59N 36°53' E 030°42'0 0.0
2018-May-10 01:29N 36°53' E 030°42'0 0.0
2018-May-10 00:53N 36°53' E 030°42'0 0.0
2018-May-10 00:23N 36°53' E 030°42'0 0.0
2018-May-09 23:53N 36°53' E 030°42'0 0.0
2018-May-09 23:29N 36°53' E 030°42'0 0.0
2018-May-09 22:47N 36°53' E 030°42'0 0.0
2018-May-09 22:29N 36°53' E 030°42'0 0.0
2018-May-09 21:59N 36°53' E 030°42'0 0.0
2018-May-09 21:29N 36°53' E 030°42'0 0.0
2018-May-09 20:59N 36°53' E 030°42'0 0.0
2018-May-09 20:29N 36°53' E 030°42'0 0.0
2018-May-09 16:41N 36°53' E 030°42'0 0.0
2018-May-09 16:17N 36°53' E 030°42'0 0.0
2018-May-09 15:59N 36°53' E 030°42'0 0.0
2018-May-09 15:26N 36°53' E 030°42'0 0.0
2018-May-09 14:59N 36°53' E 030°42'1 1.8
2018-May-09 14:27N 36°52' E 030°42'1 2.0
2018-May-09 13:59N 36°53' E 030°42'0 0.0
2018-May-09 13:29N 36°53' E 030°42'1 1.5
2018-May-09 13:00N 36°52' E 030°42'3 6.1
2018-May-09 12:29N 36°50' E 030°45'0 0.6
2018-May-09 11:59N 36°51' E 030°46'3 5.4
2018-May-09 11:30N 36°52' E 030°43'1 2.4
2018-May-09 10:58N 36°53' E 030°42'1 1.4
2018-May-09 10:29N 36°52' E 030°42'1 1.3
2018-May-09 09:58N 36°53' E 030°42'0 0.0
2018-May-09 09:28N 36°53' E 030°42'0 0.0
2018-May-09 08:58N 36°53' E 030°42'0 0.0
2018-May-09 08:28N 36°53' E 030°42'0 0.0
2018-May-09 07:58N 36°53' E 030°42'0 0.0
2018-May-09 07:28N 36°53' E 030°42'0 0.0
2018-May-09 06:58N 36°53' E 030°42'0 0.0
2018-May-09 06:28N 36°53' E 030°42'0 0.0
2018-May-09 05:58N 36°53' E 030°42'0 0.0
2018-May-09 05:28N 36°53' E 030°42'0 0.0
2018-May-09 04:46N 36°53' E 030°42'0 0.0
2018-May-09 04:28N 36°53' E 030°42'0 0.0
2018-May-09 03:58N 36°53' E 030°42'0 0.0
2018-May-09 03:28N 36°53' E 030°42'0 0.0
2018-May-09 02:58N 36°53' E 030°42'0 0.0
2018-May-09 02:28N 36°53' E 030°42'0 0.0
2018-May-09 01:58N 36°53' E 030°42'0 0.0
2018-May-09 01:28N 36°53' E 030°42'0 0.0
2018-May-09 00:58N 36°53' E 030°42'0 0.0
2018-May-09 00:28N 36°53' E 030°42'0 0.0
2018-May-08 23:58N 36°53' E 030°42'0 0.0
2018-May-08 23:28N 36°53' E 030°42'0 0.0
2018-May-08 22:58N 36°53' E 030°42'0 0.0
2018-May-08 22:28N 36°53' E 030°42'0 0.0
2018-May-08 21:58N 36°53' E 030°42'0 0.0
2018-May-08 21:16N 36°53' E 030°42'0 0.0
2018-May-08 20:46N 36°53' E 030°42'0 0.0
2018-May-08 20:28N 36°53' E 030°42'0 0.0
2018-May-08 19:58N 36°53' E 030°42'0 0.0
2018-May-08 19:28N 36°53' E 030°42'0 0.0
2018-May-08 18:58N 36°53' E 030°42'0 0.0
2018-May-08 18:28N 36°53' E 030°42'0 0.0
2018-May-08 17:58N 36°53' E 030°42'0 0.0
2018-May-08 17:10N 36°53' E 030°42'0 0.0
2018-May-08 16:52N 36°53' E 030°42'0 0.0
2018-May-08 16:28N 36°53' E 030°42'0 0.0
2018-May-08 15:58N 36°53' E 030°42'0 0.0
2018-May-08 15:28N 36°53' E 030°42'0 0.0
2018-May-08 14:55N 36°53' E 030°42'0 0.0
2018-May-08 14:28N 36°53' E 030°42'0 0.0
2018-May-08 13:46N 36°53' E 030°42'0 0.0
2018-May-08 13:28N 36°53' E 030°42'0 0.0
2018-May-08 12:58N 36°53' E 030°42'0 0.0
2018-May-08 12:28N 36°53' E 030°42'0 0.0
2018-May-08 11:43N 36°53' E 030°42'0 0.0
2018-May-08 11:28N 36°53' E 030°42'0 0.0
2018-May-08 10:58N 36°53' E 030°42'0 0.0
2018-May-08 10:16N 36°53' E 030°42'0 0.0
2018-May-08 09:58N 36°53' E 030°42'0 0.0
2018-May-08 09:28N 36°53' E 030°42'0 0.0
2018-May-08 08:58N 36°53' E 030°42'0 0.0
2018-May-08 08:28N 36°53' E 030°42'0 0.0
2018-May-08 07:58N 36°53' E 030°42'0 0.0
2018-May-08 07:28N 36°53' E 030°42'0 0.0
2018-May-08 06:58N 36°53' E 030°42'0 0.0
2018-May-08 06:28N 36°53' E 030°42'0 0.0
2018-May-08 05:58N 36°53' E 030°42'0 0.0
2018-May-08 05:28N 36°53' E 030°42'0 0.0
2018-May-08 04:58N 36°53' E 030°42'0 0.0
2018-May-08 04:28N 36°53' E 030°42'0 0.0
2018-May-08 03:58N 36°53' E 030°42'0 0.0
2018-May-08 03:28N 36°53' E 030°42'0 0.0
2018-May-08 02:58N 36°53' E 030°42'0 0.0
2018-May-08 02:28N 36°53' E 030°42'0 0.0
2018-May-08 01:52N 36°53' E 030°42'0 0.0
2018-May-08 01:28N 36°53' E 030°42'0 0.0
2018-May-08 00:58N 36°53' E 030°42'0 0.0
2018-May-08 00:28N 36°53' E 030°42'0 0.0
2018-May-07 23:58N 36°53' E 030°42'0 0.0
2018-May-07 23:28N 36°53' E 030°42'0 0.0
2018-May-07 22:58N 36°53' E 030°42'0 0.0
2018-May-07 22:16N 36°53' E 030°42'0 0.0
2018-May-07 21:58N 36°53' E 030°42'0 0.0
2018-May-07 21:28N 36°53' E 030°42'0 0.0
2018-May-07 20:58N 36°53' E 030°42'0 0.0
2018-May-07 20:28N 36°53' E 030°42'0 0.0
2018-May-07 19:58N 36°53' E 030°42'0 0.0
2018-May-07 19:28N 36°53' E 030°42'0 0.0
2018-May-07 18:58N 36°53' E 030°42'0 0.0
2018-May-07 18:22N 36°53' E 030°42'0 0.0
2018-May-07 17:58N 36°53' E 030°42'0 0.0
2018-May-07 17:28N 36°53' E 030°42'0 0.0
2018-May-07 16:58N 36°53' E 030°42'0 0.0
2018-May-07 16:28N 36°53' E 030°42'0 0.0
2018-May-07 15:58N 36°53' E 030°42'0 0.0
2018-May-07 15:28N 36°53' E 030°42'0 0.0
2018-May-07 14:58N 36°53' E 030°42'0 0.0
2018-May-07 14:28N 36°53' E 030°42'0 0.0
2018-May-07 13:58N 36°53' E 030°42'1 2.8
2018-May-07 13:30N 36°52' E 030°42'1 1.8
2018-May-07 12:45N 36°53' E 030°42'0 0.0
2018-May-07 12:27N 36°53' E 030°42'0 0.0
2018-May-07 11:57N 36°53' E 030°42'0 0.0
2018-May-07 11:27N 36°53' E 030°42'0 0.0
2018-May-07 11:00N 36°53' E 030°42'0 0.0
2018-May-07 10:27N 36°53' E 030°42'0 0.0
2018-May-07 09:48N 36°53' E 030°42'0 0.0
2018-May-07 09:27N 36°53' E 030°42'0 0.0
2018-May-07 08:57N 36°53' E 030°42'0 0.0
2018-May-07 08:27N 36°53' E 030°42'0 0.0
2018-May-07 07:57N 36°53' E 030°42'0 0.0
2018-May-07 07:27N 36°53' E 030°42'0 0.0
2018-May-07 06:51N 36°53' E 030°42'0 0.0
2018-May-07 06:21N 36°53' E 030°42'0 0.0
2018-May-07 05:57N 36°53' E 030°42'0 0.0
2018-May-07 05:27N 36°53' E 030°42'0 0.0
2018-May-07 04:51N 36°53' E 030°42'0 0.0
2018-May-07 04:21N 36°53' E 030°42'0 0.0
2018-May-07 04:00N 36°53' E 030°42'0 0.0
2018-May-07 03:27N 36°53' E 030°42'0 0.0
2018-May-07 02:45N 36°53' E 030°42'0 0.0
2018-May-07 02:27N 36°53' E 030°42'0 0.0
2018-May-07 01:57N 36°53' E 030°42'0 0.0
2018-May-07 01:09N 36°53' E 030°42'0 0.0
2018-May-07 00:39N 36°53' E 030°42'0 0.0
2018-May-07 00:15N 36°53' E 030°42'0 0.0
2018-May-06 23:57N 36°53' E 030°42'0 0.0
2018-May-06 23:27N 36°53' E 030°42'0 0.0
2018-May-06 22:51N 36°53' E 030°42'0 0.0
2018-May-06 22:27N 36°53' E 030°42'0 0.0
2018-May-06 21:57N 36°53' E 030°42'0 0.0
2018-May-06 21:21N 36°53' E 030°42'0 0.0
2018-May-06 20:57N 36°53' E 030°42'0 0.0
2018-May-06 20:27N 36°53' E 030°42'0 0.0
2018-May-06 19:57N 36°53' E 030°42'0 0.0
2018-May-06 19:27N 36°53' E 030°42'0 0.0
2018-May-06 18:57N 36°53' E 030°42'0 0.0
2018-May-06 18:27N 36°53' E 030°42'0 0.0
2018-May-06 17:27N 36°53' E 030°42'0 0.0
2018-May-06 16:51N 36°53' E 030°42'0 0.0
2018-May-06 16:21N 36°53' E 030°42'0 0.0
2018-May-06 15:51N 36°53' E 030°42'0 0.0
2018-May-06 15:27N 36°53' E 030°42'0 0.0
2018-May-06 14:57N 36°53' E 030°42'0 0.0
2018-May-06 14:21N 36°53' E 030°42'0 0.0
2018-May-06 13:57N 36°53' E 030°42'0 0.0
2018-May-06 13:27N 36°53' E 030°42'0 0.0
2018-May-06 12:57N 36°53' E 030°42'0 0.0
2018-May-06 12:30N 36°53' E 030°42'0 0.0
2018-May-06 11:57N 36°53' E 030°42'0 0.0
2018-May-06 11:24N 36°53' E 030°42'0 0.0
2018-May-06 10:57N 36°53' E 030°42'0 0.0
2018-May-06 10:27N 36°53' E 030°42'0 0.0
2018-May-06 09:45N 36°53' E 030°42'0 0.0
2018-May-06 09:27N 36°53' E 030°42'0 0.0
2018-May-06 08:57N 36°53' E 030°42'0 0.0
2018-May-06 08:27N 36°53' E 030°42'0 0.0
2018-May-06 07:57N 36°53' E 030°42'0 0.0
2018-May-06 07:21N 36°53' E 030°42'0 0.0
2018-May-06 06:57N 36°53' E 030°42'0 0.0
2018-May-06 06:27N 36°53' E 030°42'0 0.0
2018-May-06 05:51N 36°53' E 030°42'0 0.0
2018-May-06 05:21N 36°53' E 030°42'0 0.0
2018-May-06 04:57N 36°53' E 030°42'0 0.0
2018-May-06 04:21N 36°53' E 030°42'0 0.0
2018-May-06 03:57N 36°53' E 030°42'0 0.0
2018-May-06 03:27N 36°53' E 030°42'0 0.0
2018-May-06 02:57N 36°53' E 030°42'0 0.0
2018-May-06 02:27N 36°53' E 030°42'0 0.0
2018-May-06 01:51N 36°53' E 030°42'0 0.0
2018-May-06 01:27N 36°53' E 030°42'0 0.0
2018-May-06 00:57N 36°53' E 030°42'0 0.0
2018-May-06 00:27N 36°53' E 030°42'0 0.0
2018-May-05 23:57N 36°53' E 030°42'0 0.0
2018-May-05 23:27N 36°53' E 030°42'0 0.0
2018-May-05 22:57N 36°53' E 030°42'0 0.0
2018-May-05 22:27N 36°53' E 030°42'0 0.0
2018-May-05 21:57N 36°53' E 030°42'0 0.0
2018-May-05 21:15N 36°53' E 030°42'0 0.0
2018-May-05 20:51N 36°53' E 030°42'0 0.0
2018-May-05 20:27N 36°53' E 030°42'0 0.0
2018-May-05 19:57N 36°53' E 030°42'0 0.0
2018-May-05 19:27N 36°53' E 030°42'0 0.0
2018-May-05 18:57N 36°53' E 030°42'0 0.0
2018-May-05 18:27N 36°53' E 030°42'0 0.0
2018-May-05 17:57N 36°53' E 030°42'0 0.0
2018-May-05 17:27N 36°53' E 030°42'0 0.0
2018-May-05 16:45N 36°53' E 030°42'0 0.0
2018-May-05 16:27N 36°53' E 030°42'1 2.1
2018-May-05 15:55N 36°52' E 030°42'1 1.9
2018-May-05 15:19N 36°53' E 030°42'0 0.0
2018-May-05 14:55N 36°53' E 030°42'0 0.0
2018-May-05 14:25N 36°53' E 030°42'  
Track history (hours):
 
Tides and Currents Weather Stations Pressure Air Temp Water Temp Dewpoint Dewpoint Depression Visibility Wind Speed Wind Dir Waves Ship Positions

Cengizhan-1

Last reported at 2018-May-15 14:20 UTC. Time now 2018-Jun-18 03:46 UTC.
Position N 36°53' E 030°42'.
Warning: this ship's position is 33 days out of date.

Length 18 m.

Type: Passenger vessel. MMSI: 271040506.

Date/timePositionNaut miles runAvg speedWind from/ knotsBaromVisibWave heightAir tempDewpointWater temp
2018-May-15 14:20N 36°53' E 030°42'0 0.0
2018-May-15 13:56N 36°53' E 030°42'0 0.2
2018-May-15 13:16N 36°53' E 030°42'2 6.4
2018-May-15 13:01N 36°52' E 030°41'3 6.6
2018-May-15 12:30N 36°50' E 030°37'1 1.8
2018-May-15 12:00N 36°49' E 030°36'2 3.2
2018-May-15 11:30N 36°48' E 030°35'0 0.0
2018-May-15 11:00N 36°48' E 030°35'3 6.0
2018-May-15 10:30N 36°49' E 030°39'3 6.8
2018-May-15 10:00N 36°50' E 030°43'2 4.6
2018-May-15 09:30N 36°50' E 030°46'0 0.3
2018-May-15 08:08N 36°51' E 030°45'1 6.4
2018-May-15 08:00N 36°51' E 030°44'3 4.5
2018-May-15 07:25N 36°53' E 030°42'0 0.0
2018-May-15 06:49N 36°53' E 030°42'0 0.0
2018-May-15 06:25N 36°53' E 030°42'0 0.0
2018-May-15 05:55N 36°53' E 030°42'0 0.0
2018-May-15 05:13N 36°53' E 030°42'0 0.0
2018-May-15 04:55N 36°53' E 030°42'0 0.0
2018-May-15 04:25N 36°53' E 030°42'0 0.0
2018-May-15 03:55N 36°53' E 030°42'0 0.0
2018-May-15 03:25N 36°53' E 030°42'0 0.0
2018-May-15 02:55N 36°53' E 030°42'0 0.0
2018-May-15 02:25N 36°53' E 030°42'0 0.0
2018-May-15 01:55N 36°53' E 030°42'0 0.0
2018-May-15 01:19N 36°53' E 030°42'0 0.0
2018-May-15 00:43N 36°53' E 030°42'0 0.0
2018-May-14 15:07N 36°53' E 030°42'0 0.0
2018-May-14 14:01N 36°53' E 030°42'0 0.0
2018-May-14 13:01N 36°53' E 030°42'0 0.0
2018-May-14 12:55N 36°53' E 030°42'1 3.3
2018-May-14 12:28N 36°52' E 030°43'3 6.1
2018-May-14 12:00N 36°51' E 030°46'1 1.0
2018-May-14 10:48N 36°51' E 030°45'2 5.9
2018-May-14 10:30N 36°52' E 030°43'1 2.7
2018-May-14 10:00N 36°53' E 030°42'1 1.1
2018-May-14 09:11N 36°52' E 030°43'1 6.9
2018-May-14 09:00N 36°51' E 030°44'1 1.1
2018-May-14 07:45N 36°51' E 030°45'2 6.1
2018-May-14 07:30N 36°52' E 030°44'2 1.5
2018-May-14 06:10N 36°53' E 030°42'0 0.0
2018-May-14 05:58N 36°53' E 030°42'0 0.0
2018-May-14 04:58N 36°53' E 030°42'0 0.0
2018-May-14 04:04N 36°53' E 030°42'0 0.1
2018-May-14 03:58N 36°53' E 030°42'0 0.0
2018-May-14 03:28N 36°53' E 030°42'0 0.0
2018-May-14 02:22N 36°53' E 030°42'0 0.0
2018-May-14 01:58N 36°53' E 030°42'0 0.0
2018-May-14 01:16N 36°53' E 030°42'0 0.0
2018-May-14 00:58N 36°53' E 030°42'0 0.0
2018-May-14 00:22N 36°53' E 030°42'0 0.0
2018-May-13 23:58N 36°53' E 030°42'0 0.0
2018-May-13 23:22N 36°53' E 030°42'0 0.0
2018-May-13 22:58N 36°53' E 030°42'0 0.0
2018-May-13 22:28N 36°53' E 030°42'0 0.0
2018-May-13 21:35N 36°53' E 030°42'0 0.0
2018-May-13 21:29N 36°53' E 030°42'0 0.0
2018-May-13 20:52N 36°53' E 030°42'0 0.0
2018-May-13 20:23N 36°53' E 030°42'0 0.0
2018-May-13 19:58N 36°53' E 030°42'0 0.0
2018-May-13 19:28N 36°53' E 030°42'0 0.0
2018-May-13 18:59N 36°53' E 030°42'0 0.0
2018-May-13 18:17N 36°53' E 030°42'0 0.0
2018-May-13 17:53N 36°53' E 030°42'0 0.0
2018-May-13 17:29N 36°53' E 030°42'0 0.0
2018-May-13 16:59N 36°53' E 030°42'0 0.0
2018-May-13 16:29N 36°53' E 030°42'0 0.0
2018-May-13 15:59N 36°53' E 030°42'0 0.0
2018-May-13 15:26N 36°53' E 030°42'0 0.0
2018-May-13 14:59N 36°53' E 030°42'0 0.0
2018-May-13 14:29N 36°53' E 030°42'0 0.0
2018-May-13 13:59N 36°53' E 030°42'1 2.0
2018-May-13 13:28N 36°52' E 030°42'1 2.2
2018-May-13 13:00N 36°53' E 030°42'0 0.3
2018-May-13 12:28N 36°53' E 030°42'0 0.0
2018-May-13 11:52N 36°53' E 030°42'0 0.0
2018-May-13 11:28N 36°53' E 030°42'0 0.0
2018-May-13 10:58N 36°53' E 030°42'0 0.0
2018-May-13 10:28N 36°53' E 030°42'0 0.0
2018-May-13 09:58N 36°53' E 030°42'0 0.0
2018-May-13 09:28N 36°53' E 030°42'1 1.2
2018-May-13 09:00N 36°53' E 030°42'0 0.4
2018-May-13 08:30N 36°53' E 030°42'0 0.6
2018-May-13 07:56N 36°53' E 030°42'0 0.0
2018-May-13 07:29N 36°53' E 030°42'0 0.0
2018-May-13 06:56N 36°53' E 030°42'0 0.0
2018-May-13 06:26N 36°53' E 030°42'0 0.0
2018-May-13 05:56N 36°53' E 030°42'0 0.0
2018-May-13 05:20N 36°53' E 030°42'0 0.0
2018-May-13 04:56N 36°53' E 030°42'0 0.0
2018-May-13 04:20N 36°53' E 030°42'0 0.0
2018-May-13 03:56N 36°53' E 030°42'0 0.0
2018-May-13 03:26N 36°53' E 030°42'0 0.0
2018-May-13 02:56N 36°53' E 030°42'0 0.0
2018-May-13 02:26N 36°53' E 030°42'0 0.0
2018-May-13 01:56N 36°53' E 030°42'0 0.0
2018-May-13 01:26N 36°53' E 030°42'0 0.0
2018-May-13 00:56N 36°53' E 030°42'0 0.0
2018-May-13 00:26N 36°53' E 030°42'0 0.0
2018-May-12 23:56N 36°53' E 030°42'0 0.0
2018-May-12 23:26N 36°53' E 030°42'0 0.0
2018-May-12 22:56N 36°53' E 030°42'0 0.0
2018-May-12 22:26N 36°53' E 030°42'0 0.0
2018-May-12 21:59N 36°53' E 030°42'0 0.0
2018-May-12 21:26N 36°53' E 030°42'0 0.0
2018-May-12 20:44N 36°53' E 030°42'0 0.0
2018-May-12 20:26N 36°53' E 030°42'0 0.0
2018-May-12 19:56N 36°53' E 030°42'0 0.0
2018-May-12 06:20N 36°53' E 030°42'0 0.0
2018-May-12 05:50N 36°53' E 030°42'0 0.0
2018-May-12 05:26N 36°53' E 030°42'0 0.0
2018-May-12 04:56N 36°53' E 030°42'0 0.0
2018-May-12 04:26N 36°53' E 030°42'0 0.0
2018-May-12 03:56N 36°53' E 030°42'0 0.0
2018-May-12 03:26N 36°53' E 030°42'0 0.0
2018-May-12 02:56N 36°53' E 030°42'0 0.0
2018-May-12 02:26N 36°53' E 030°42'0 0.0
2018-May-12 01:56N 36°53' E 030°42'0 0.0
2018-May-12 01:26N 36°53' E 030°42'0 0.0
2018-May-12 00:56N 36°53' E 030°42'0 0.0
2018-May-12 00:26N 36°53' E 030°42'0 0.0
2018-May-11 23:56N 36°53' E 030°42'0 0.0
2018-May-11 23:14N 36°53' E 030°42'0 0.0
2018-May-11 22:56N 36°53' E 030°42'0 0.0
2018-May-11 22:26N 36°53' E 030°42'0 0.0
2018-May-11 21:56N 36°53' E 030°42'0 0.0
2018-May-11 21:26N 36°53' E 030°42'0 0.0
2018-May-11 20:56N 36°53' E 030°42'0 0.0
2018-May-11 20:26N 36°53' E 030°42'0 0.0
2018-May-11 19:56N 36°53' E 030°42'0 0.0
2018-May-11 19:26N 36°53' E 030°42'0 0.0
2018-May-11 18:56N 36°53' E 030°42'0 0.0
2018-May-11 18:26N 36°53' E 030°42'0 0.0
2018-May-11 17:56N 36°53' E 030°42'0 0.0
2018-May-11 17:26N 36°53' E 030°42'0 0.0
2018-May-11 16:56N 36°53' E 030°42'0 0.0
2018-May-11 16:26N 36°53' E 030°42'0 0.0
2018-May-11 15:56N 36°53' E 030°42'0 0.0
2018-May-11 15:14N 36°53' E 030°42'0 0.0
2018-May-11 14:56N 36°53' E 030°42'0 0.0
2018-May-11 14:26N 36°53' E 030°42'0 0.0
2018-May-11 13:56N 36°53' E 030°42'0 0.0
2018-May-11 13:26N 36°53' E 030°42'0 0.0
2018-May-11 12:56N 36°53' E 030°42'0 0.0
2018-May-11 12:26N 36°53' E 030°42'0 0.0
2018-May-11 11:56N 36°53' E 030°42'0 0.0
2018-May-11 11:26N 36°53' E 030°42'0 0.0
2018-May-11 10:56N 36°53' E 030°42'0 0.0
2018-May-11 10:26N 36°53' E 030°42'0 0.0
2018-May-11 09:56N 36°53' E 030°42'0 0.0
2018-May-11 09:26N 36°53' E 030°42'0 0.0
2018-May-11 08:56N 36°53' E 030°42'0 0.0
2018-May-11 08:26N 36°53' E 030°42'0 0.0
2018-May-11 07:56N 36°53' E 030°42'0 0.0
2018-May-11 07:26N 36°53' E 030°42'0 0.0
2018-May-11 06:50N 36°53' E 030°42'0 0.0
2018-May-11 06:26N 36°53' E 030°42'0 0.0
2018-May-11 05:50N 36°53' E 030°42'0 0.0
2018-May-11 05:26N 36°53' E 030°42'0 0.0
2018-May-11 04:56N 36°53' E 030°42'0 0.0
2018-May-11 04:26N 36°53' E 030°42'0 0.0
2018-May-11 03:56N 36°53' E 030°42'0 0.0
2018-May-11 03:26N 36°53' E 030°42'0 0.0
2018-May-11 02:50N 36°53' E 030°42'0 0.0
2018-May-11 02:26N 36°53' E 030°42'0 0.0
2018-May-11 01:56N 36°53' E 030°42'0 0.0
2018-May-11 01:26N 36°53' E 030°42'0 0.0
2018-May-11 00:56N 36°53' E 030°42'0 0.0
2018-May-11 00:26N 36°53' E 030°42'0 0.0
2018-May-10 23:56N 36°53' E 030°42'0 0.0
2018-May-10 23:26N 36°53' E 030°42'0 0.0
2018-May-10 22:56N 36°53' E 030°42'0 0.0
2018-May-10 22:26N 36°53' E 030°42'0 0.0
2018-May-10 21:56N 36°53' E 030°42'0 0.0
2018-May-10 21:26N 36°53' E 030°42'0 0.0
2018-May-10 20:56N 36°53' E 030°42'0 0.0
2018-May-10 20:26N 36°53' E 030°42'0 0.0
2018-May-10 19:50N 36°53' E 030°42'0 0.0
2018-May-10 19:26N 36°53' E 030°42'0 0.0
2018-May-10 18:56N 36°53' E 030°42'0 0.0
2018-May-10 18:26N 36°53' E 030°42'0 0.0
2018-May-10 17:14N 36°53' E 030°42'0 0.0
2018-May-10 16:56N 36°53' E 030°42'0 0.0
2018-May-10 16:20N 36°53' E 030°42'0 0.0
2018-May-10 15:56N 36°53' E 030°42'0 0.0
2018-May-10 15:26N 36°53' E 030°42'0 0.0
2018-May-10 14:56N 36°53' E 030°42'0 0.0
2018-May-10 14:26N 36°53' E 030°42'0 0.0
2018-May-10 13:56N 36°53' E 030°42'0 0.0
2018-May-10 13:26N 36°53' E 030°42'0 0.0
2018-May-10 12:56N 36°53' E 030°42'0 0.0
2018-May-10 12:26N 36°53' E 030°42'0 0.0
2018-May-10 11:56N 36°53' E 030°42'0 0.0
2018-May-10 11:26N 36°53' E 030°42'0 0.0
2018-May-10 10:59N 36°53' E 030°42'0 0.0
2018-May-10 10:29N 36°53' E 030°42'0 0.0
2018-May-10 09:56N 36°53' E 030°42'0 0.0
2018-May-10 09:29N 36°53' E 030°42'2 3.6
2018-May-10 09:00N 36°52' E 030°43'2 1.8
2018-May-10 07:47N 36°51' E 030°46'2 6.4
2018-May-10 07:30N 36°51' E 030°44'2 4.1
2018-May-10 06:59N 36°53' E 030°42'0 0.0
2018-May-10 06:29N 36°53' E 030°42'0 0.0
2018-May-10 05:59N 36°53' E 030°42'0 0.0
2018-May-10 05:29N 36°53' E 030°42'0 0.0
2018-May-10 04:59N 36°53' E 030°42'0 0.0
2018-May-10 04:29N 36°53' E 030°42'0 0.0
2018-May-10 03:59N 36°53' E 030°42'0 0.0
2018-May-10 03:11N 36°53' E 030°42'0 0.0
2018-May-10 02:59N 36°53' E 030°42'0 0.0
2018-May-10 02:29N 36°53' E 030°42'0 0.0
2018-May-10 01:59N 36°53' E 030°42'0 0.0
2018-May-10 01:29N 36°53' E 030°42'0 0.0
2018-May-10 00:53N 36°53' E 030°42'0 0.0
2018-May-10 00:23N 36°53' E 030°42'0 0.0
2018-May-09 23:53N 36°53' E 030°42'0 0.0
2018-May-09 23:29N 36°53' E 030°42'0 0.0
2018-May-09 22:47N 36°53' E 030°42'0 0.0
2018-May-09 22:29N 36°53' E 030°42'0 0.0
2018-May-09 21:59N 36°53' E 030°42'0 0.0
2018-May-09 21:29N 36°53' E 030°42'0 0.0
2018-May-09 20:59N 36°53' E 030°42'0 0.0
2018-May-09 20:29N 36°53' E 030°42'0 0.0
2018-May-09 16:41N 36°53' E 030°42'0 0.0
2018-May-09 16:17N 36°53' E 030°42'0 0.0
2018-May-09 15:59N 36°53' E 030°42'0 0.0
2018-May-09 15:26N 36°53' E 030°42'0 0.0
2018-May-09 14:59N 36°53' E 030°42'1 1.8
2018-May-09 14:27N 36°52' E 030°42'1 2.0
2018-May-09 13:59N 36°53' E 030°42'0 0.0
2018-May-09 13:29N 36°53' E 030°42'1 1.5
2018-May-09 13:00N 36°52' E 030°42'3 6.1
2018-May-09 12:29N 36°50' E 030°45'0 0.6
2018-May-09 11:59N 36°51' E 030°46'3 5.4
2018-May-09 11:30N 36°52' E 030°43'1 2.4
2018-May-09 10:58N 36°53' E 030°42'1 1.4
2018-May-09 10:29N 36°52' E 030°42'1 1.3
2018-May-09 09:58N 36°53' E 030°42'0 0.0
2018-May-09 09:28N 36°53' E 030°42'0 0.0
2018-May-09 08:58N 36°53' E 030°42'0 0.0
2018-May-09 08:28N 36°53' E 030°42'0 0.0
2018-May-09 07:58N 36°53' E 030°42'0 0.0
2018-May-09 07:28N 36°53' E 030°42'0 0.0
2018-May-09 06:58N 36°53' E 030°42'0 0.0
2018-May-09 06:28N 36°53' E 030°42'0 0.0
2018-May-09 05:58N 36°53' E 030°42'0 0.0
2018-May-09 05:28N 36°53' E 030°42'0 0.0
2018-May-09 04:46N 36°53' E 030°42'0 0.0
2018-May-09 04:28N 36°53' E 030°42'0 0.0
2018-May-09 03:58N 36°53' E 030°42'0 0.0
2018-May-09 03:28N 36°53' E 030°42'0 0.0
2018-May-09 02:58N 36°53' E 030°42'0 0.0
2018-May-09 02:28N 36°53' E 030°42'0 0.0
2018-May-09 01:58N 36°53' E 030°42'0 0.0
2018-May-09 01:28N 36°53' E 030°42'0 0.0
2018-May-09 00:58N 36°53' E 030°42'0 0.0
2018-May-09 00:28N 36°53' E 030°42'0 0.0
2018-May-08 23:58N 36°53' E 030°42'0 0.0
2018-May-08 23:28N 36°53' E 030°42'0 0.0
2018-May-08 22:58N 36°53' E 030°42'0 0.0
2018-May-08 22:28N 36°53' E 030°42'0 0.0
2018-May-08 21:58N 36°53' E 030°42'0 0.0
2018-May-08 21:16N 36°53' E 030°42'0 0.0
2018-May-08 20:46N 36°53' E 030°42'0 0.0
2018-May-08 20:28N 36°53' E 030°42'0 0.0
2018-May-08 19:58N 36°53' E 030°42'0 0.0
2018-May-08 19:28N 36°53' E 030°42'0 0.0
2018-May-08 18:58N 36°53' E 030°42'0 0.0
2018-May-08 18:28N 36°53' E 030°42'0 0.0
2018-May-08 17:58N 36°53' E 030°42'0 0.0
2018-May-08 17:10N 36°53' E 030°42'0 0.0
2018-May-08 16:52N 36°53' E 030°42'0 0.0
2018-May-08 16:28N 36°53' E 030°42'0 0.0
2018-May-08 15:58N 36°53' E 030°42'0 0.0
2018-May-08 15:28N 36°53' E 030°42'0 0.0
2018-May-08 14:55N 36°53' E 030°42'0 0.0
2018-May-08 14:28N 36°53' E 030°42'0 0.0
2018-May-08 13:46N 36°53' E 030°42'0 0.0
2018-May-08 13:28N 36°53' E 030°42'0 0.0
2018-May-08 12:58N 36°53' E 030°42'0 0.0
2018-May-08 12:28N 36°53' E 030°42'0 0.0
2018-May-08 11:43N 36°53' E 030°42'0 0.0
2018-May-08 11:28N 36°53' E 030°42'0 0.0
2018-May-08 10:58N 36°53' E 030°42'0 0.0
2018-May-08 10:16N 36°53' E 030°42'0 0.0
2018-May-08 09:58N 36°53' E 030°42'0 0.0
2018-May-08 09:28N 36°53' E 030°42'0 0.0
2018-May-08 08:58N 36°53' E 030°42'0 0.0
2018-May-08 08:28N 36°53' E 030°42'0 0.0
2018-May-08 07:58N 36°53' E 030°42'0 0.0
2018-May-08 07:28N 36°53' E 030°42'0 0.0
2018-May-08 06:58N 36°53' E 030°42'0 0.0
2018-May-08 06:28N 36°53' E 030°42'0 0.0
2018-May-08 05:58N 36°53' E 030°42'0 0.0
2018-May-08 05:28N 36°53' E 030°42'0 0.0
2018-May-08 04:58N 36°53' E 030°42'0 0.0
2018-May-08 04:28N 36°53' E 030°42'0 0.0
2018-May-08 03:58N 36°53' E 030°42'0 0.0
2018-May-08 03:28N 36°53' E 030°42'0 0.0
2018-May-08 02:58N 36°53' E 030°42'0 0.0
2018-May-08 02:28N 36°53' E 030°42'0 0.0
2018-May-08 01:52N 36°53' E 030°42'0 0.0
2018-May-08 01:28N 36°53' E 030°42'0 0.0
2018-May-08 00:58N 36°53' E 030°42'0 0.0
2018-May-08 00:28N 36°53' E 030°42'0 0.0
2018-May-07 23:58N 36°53' E 030°42'0 0.0
2018-May-07 23:28N 36°53' E 030°42'0 0.0
2018-May-07 22:58N 36°53' E 030°42'0 0.0
2018-May-07 22:16N 36°53' E 030°42'0 0.0
2018-May-07 21:58N 36°53' E 030°42'0 0.0
2018-May-07 21:28N 36°53' E 030°42'0 0.0
2018-May-07 20:58N 36°53' E 030°42'0 0.0
2018-May-07 20:28N 36°53' E 030°42'0 0.0
2018-May-07 19:58N 36°53' E 030°42'0 0.0
2018-May-07 19:28N 36°53' E 030°42'0 0.0
2018-May-07 18:58N 36°53' E 030°42'0 0.0
2018-May-07 18:22N 36°53' E 030°42'0 0.0
2018-May-07 17:58N 36°53' E 030°42'0 0.0
2018-May-07 17:28N 36°53' E 030°42'0 0.0
2018-May-07 16:58N 36°53' E 030°42'0 0.0
2018-May-07 16:28N 36°53' E 030°42'0 0.0
2018-May-07 15:58N 36°53' E 030°42'0 0.0
2018-May-07 15:28N 36°53' E 030°42'0 0.0
2018-May-07 14:58N 36°53' E 030°42'0 0.0
2018-May-07 14:28N 36°53' E 030°42'0 0.0
2018-May-07 13:58N 36°53' E 030°42'1 2.8
2018-May-07 13:30N 36°52' E 030°42'1 1.8
2018-May-07 12:45N 36°53' E 030°42'0 0.0
2018-May-07 12:27N 36°53' E 030°42'0 0.0
2018-May-07 11:57N 36°53' E 030°42'0 0.0
2018-May-07 11:27N 36°53' E 030°42'0 0.0
2018-May-07 11:00N 36°53' E 030°42'0 0.0
2018-May-07 10:27N 36°53' E 030°42'0 0.0
2018-May-07 09:48N 36°53' E 030°42'0 0.0
2018-May-07 09:27N 36°53' E 030°42'0 0.0
2018-May-07 08:57N 36°53' E 030°42'0 0.0
2018-May-07 08:27N 36°53' E 030°42'0 0.0
2018-May-07 07:57N 36°53' E 030°42'0 0.0
2018-May-07 07:27N 36°53' E 030°42'0 0.0
2018-May-07 06:51N 36°53' E 030°42'0 0.0
2018-May-07 06:21N 36°53' E 030°42'0 0.0
2018-May-07 05:57N 36°53' E 030°42'0 0.0
2018-May-07 05:27N 36°53' E 030°42'0 0.0
2018-May-07 04:51N 36°53' E 030°42'0 0.0
2018-May-07 04:21N 36°53' E 030°42'0 0.0
2018-May-07 04:00N 36°53' E 030°42'0 0.0
2018-May-07 03:27N 36°53' E 030°42'0 0.0
2018-May-07 02:45N 36°53' E 030°42'0 0.0
2018-May-07 02:27N 36°53' E 030°42'0 0.0
2018-May-07 01:57N 36°53' E 030°42'0 0.0
2018-May-07 01:09N 36°53' E 030°42'0 0.0
2018-May-07 00:39N 36°53' E 030°42'0 0.0
2018-May-07 00:15N 36°53' E 030°42'0 0.0
2018-May-06 23:57N 36°53' E 030°42'0 0.0
2018-May-06 23:27N 36°53' E 030°42'0 0.0
2018-May-06 22:51N 36°53' E 030°42'0 0.0
2018-May-06 22:27N 36°53' E 030°42'0 0.0
2018-May-06 21:57N 36°53' E 030°42'0 0.0
2018-May-06 21:21N 36°53' E 030°42'0 0.0
2018-May-06 20:57N 36°53' E 030°42'0 0.0
2018-May-06 20:27N 36°53' E 030°42'0 0.0
2018-May-06 19:57N 36°53' E 030°42'0 0.0
2018-May-06 19:27N 36°53' E 030°42'0 0.0
2018-May-06 18:57N 36°53' E 030°42'0 0.0
2018-May-06 18:27N 36°53' E 030°42'0 0.0
2018-May-06 17:27N 36°53' E 030°42'0 0.0
2018-May-06 16:51N 36°53' E 030°42'0 0.0
2018-May-06 16:21N 36°53' E 030°42'0 0.0
2018-May-06 15:51N 36°53' E 030°42'0 0.0
2018-May-06 15:27N 36°53' E 030°42'0 0.0
2018-May-06 14:57N 36°53' E 030°42'0 0.0
2018-May-06 14:21N 36°53' E 030°42'0 0.0
2018-May-06 13:57N 36°53' E 030°42'0 0.0
2018-May-06 13:27N 36°53' E 030°42'0 0.0
2018-May-06 12:57N 36°53' E 030°42'0 0.0
2018-May-06 12:30N 36°53' E 030°42'0 0.0
2018-May-06 11:57N 36°53' E 030°42'0 0.0
2018-May-06 11:24N 36°53' E 030°42'0 0.0
2018-May-06 10:57N 36°53' E 030°42'0 0.0
2018-May-06 10:27N 36°53' E 030°42'0 0.0
2018-May-06 09:45N 36°53' E 030°42'0 0.0
2018-May-06 09:27N 36°53' E 030°42'0 0.0
2018-May-06 08:57N 36°53' E 030°42'0 0.0
2018-May-06 08:27N 36°53' E 030°42'0 0.0
2018-May-06 07:57N 36°53' E 030°42'0 0.0
2018-May-06 07:21N 36°53' E 030°42'0 0.0
2018-May-06 06:57N 36°53' E 030°42'0 0.0
2018-May-06 06:27N 36°53' E 030°42'0 0.0
2018-May-06 05:51N 36°53' E 030°42'0 0.0
2018-May-06 05:21N 36°53' E 030°42'0 0.0
2018-May-06 04:57N 36°53' E 030°42'0 0.0
2018-May-06 04:21N 36°53' E 030°42'0 0.0
2018-May-06 03:57N 36°53' E 030°42'0 0.0
2018-May-06 03:27N 36°53' E 030°42'0 0.0
2018-May-06 02:57N 36°53' E 030°42'0 0.0
2018-May-06 02:27N 36°53' E 030°42'0 0.0
2018-May-06 01:51N 36°53' E 030°42'0 0.0
2018-May-06 01:27N 36°53' E 030°42'0 0.0
2018-May-06 00:57N 36°53' E 030°42'0 0.0
2018-May-06 00:27N 36°53' E 030°42'0 0.0
2018-May-05 23:57N 36°53' E 030°42'0 0.0
2018-May-05 23:27N 36°53' E 030°42'0 0.0
2018-May-05 22:57N 36°53' E 030°42'0 0.0
2018-May-05 22:27N 36°53' E 030°42'0 0.0
2018-May-05 21:57N 36°53' E 030°42'0 0.0
2018-May-05 21:15N 36°53' E 030°42'0 0.0
2018-May-05 20:51N 36°53' E 030°42'0 0.0
2018-May-05 20:27N 36°53' E 030°42'0 0.0
2018-May-05 19:57N 36°53' E 030°42'0 0.0
2018-May-05 19:27N 36°53' E 030°42'0 0.0
2018-May-05 18:57N 36°53' E 030°42'0 0.0
2018-May-05 18:27N 36°53' E 030°42'0 0.0
2018-May-05 17:57N 36°53' E 030°42'0 0.0
2018-May-05 17:27N 36°53' E 030°42'0 0.0
2018-May-05 16:45N 36°53' E 030°42'0 0.0
2018-May-05 16:27N 36°53' E 030°42'1 2.1
2018-May-05 15:55N 36°52' E 030°42'1 1.9
2018-May-05 15:19N 36°53' E 030°42'0 0.0
2018-May-05 14:55N 36°53' E 030°42'0 0.0
2018-May-05 14:25N 36°53' E 030°42'  

Dump ship's entire track history